sensor_id;sensor_type;location;lat;lon;timestamp;temperature;humidity
75190;HTU21D;69198;44.694;37.790;2024-02-21T00:00:15;1.32;76.89
75190;HTU21D;69198;44.694;37.790;2024-02-21T00:01:18;1.35;76.97
75190;HTU21D;69198;44.694;37.790;2024-02-21T00:02:20;1.32;76.94
75190;HTU21D;69198;44.694;37.790;2024-02-21T00:03:22;1.31;76.95
75190;HTU21D;69198;44.694;37.790;2024-02-21T00:04:23;1.29;76.98
75190;HTU21D;69198;44.694;37.790;2024-02-21T00:05:24;1.27;76.97
75190;HTU21D;69198;44.694;37.790;2024-02-21T00:06:25;1.26;77.02
75190;HTU21D;69198;44.694;37.790;2024-02-21T00:07:26;1.26;77.05
75190;HTU21D;69198;44.694;37.790;2024-02-21T00:08:27;1.24;77.08
75190;HTU21D;69198;44.694;37.790;2024-02-21T00:09:28;1.25;77.11
75190;HTU21D;69198;44.694;37.790;2024-02-21T00:10:29;1.27;77.18
75190;HTU21D;69198;44.694;37.790;2024-02-21T00:11:32;1.25;77.19
75190;HTU21D;69198;44.694;37.790;2024-02-21T00:12:33;1.26;77.21
75190;HTU21D;69198;44.694;37.790;2024-02-21T00:13:34;1.26;77.24
75190;HTU21D;69198;44.694;37.790;2024-02-21T00:14:35;1.26;77.26
75190;HTU21D;69198;44.694;37.790;2024-02-21T00:15:36;1.27;77.26
75190;HTU21D;69198;44.694;37.790;2024-02-21T00:16:37;1.26;77.30
75190;HTU21D;69198;44.694;37.790;2024-02-21T00:17:38;1.28;77.33
75190;HTU21D;69198;44.694;37.790;2024-02-21T00:18:40;1.32;77.39
75190;HTU21D;69198;44.694;37.790;2024-02-21T00:19:41;1.33;77.40
75190;HTU21D;69198;44.694;37.790;2024-02-21T00:20:42;1.36;77.40
75190;HTU21D;69198;44.694;37.790;2024-02-21T00:21:43;1.36;77.37
75190;HTU21D;69198;44.694;37.790;2024-02-21T00:22:44;1.38;77.40
75190;HTU21D;69198;44.694;37.790;2024-02-21T00:23:45;1.39;77.40
75190;HTU21D;69198;44.694;37.790;2024-02-21T00:24:51;1.39;77.38
75190;HTU21D;69198;44.694;37.790;2024-02-21T00:25:52;1.40;77.38
75190;HTU21D;69198;44.694;37.790;2024-02-21T00:26:53;1.42;77.37
75190;HTU21D;69198;44.694;37.790;2024-02-21T00:27:55;1.41;77.36
75190;HTU21D;69198;44.694;37.790;2024-02-21T00:28:56;1.40;77.35
75190;HTU21D;69198;44.694;37.790;2024-02-21T00:29:57;1.41;77.40
75190;HTU21D;69198;44.694;37.790;2024-02-21T00:30:58;1.41;77.42
75190;HTU21D;69198;44.694;37.790;2024-02-21T00:31:59;1.43;77.44
75190;HTU21D;69198;44.694;37.790;2024-02-21T00:33:00;1.43;77.45
75190;HTU21D;69198;44.694;37.790;2024-02-21T00:34:01;1.41;77.47
75190;HTU21D;69198;44.694;37.790;2024-02-21T00:35:02;1.43;77.53
75190;HTU21D;69198;44.694;37.790;2024-02-21T00:36:03;1.43;77.56
75190;HTU21D;69198;44.694;37.790;2024-02-21T00:37:04;1.42;77.57
75190;HTU21D;69198;44.694;37.790;2024-02-21T00:38:05;1.43;77.66
75190;HTU21D;69198;44.694;37.790;2024-02-21T00:39:06;1.43;77.64
75190;HTU21D;69198;44.694;37.790;2024-02-21T00:40:07;1.47;77.72
75190;HTU21D;69198;44.694;37.790;2024-02-21T00:41:08;1.46;77.71
75190;HTU21D;69198;44.694;37.790;2024-02-21T00:42:09;1.48;77.73
75190;HTU21D;69198;44.694;37.790;2024-02-21T00:43:10;1.49;77.78
75190;HTU21D;69198;44.694;37.790;2024-02-21T00:44:12;1.49;77.78
75190;HTU21D;69198;44.694;37.790;2024-02-21T00:45:13;1.46;77.82
75190;HTU21D;69198;44.694;37.790;2024-02-21T00:46:14;1.48;77.87
75190;HTU21D;69198;44.694;37.790;2024-02-21T00:47:15;1.49;77.86
75190;HTU21D;69198;44.694;37.790;2024-02-21T00:48:16;1.53;77.93
75190;HTU21D;69198;44.694;37.790;2024-02-21T00:49:17;1.52;77.87
75190;HTU21D;69198;44.694;37.790;2024-02-21T00:50:18;1.51;77.88
75190;HTU21D;69198;44.694;37.790;2024-02-21T00:51:19;1.52;77.88
75190;HTU21D;69198;44.694;37.790;2024-02-21T00:52:20;1.54;77.93
75190;HTU21D;69198;44.694;37.790;2024-02-21T00:53:21;1.53;77.89
75190;HTU21D;69198;44.694;37.790;2024-02-21T00:54:22;1.54;77.91
75190;HTU21D;69198;44.694;37.790;2024-02-21T00:55:23;1.53;77.92
75190;HTU21D;69198;44.694;37.790;2024-02-21T00:56:24;1.51;77.92
75190;HTU21D;69198;44.694;37.790;2024-02-21T00:57:26;1.49;77.98
75190;HTU21D;69198;44.694;37.790;2024-02-21T00:58:27;1.49;78.01
75190;HTU21D;69198;44.694;37.790;2024-02-21T00:59:28;1.47;78.01
75190;HTU21D;69198;44.694;37.790;2024-02-21T01:00:29;1.43;78.01
75190;HTU21D;69198;44.694;37.790;2024-02-21T01:01:30;1.45;78.14
75190;HTU21D;69198;44.694;37.790;2024-02-21T01:02:31;1.50;78.34
75190;HTU21D;69198;44.694;37.790;2024-02-21T01:03:32;1.49;78.29
75190;HTU21D;69198;44.694;37.790;2024-02-21T01:04:34;1.48;78.32
75190;HTU21D;69198;44.694;37.790;2024-02-21T01:05:35;1.48;78.29
75190;HTU21D;69198;44.694;37.790;2024-02-21T01:06:36;1.45;78.30
75190;HTU21D;69198;44.694;37.790;2024-02-21T01:07:37;1.42;78.34
75190;HTU21D;69198;44.694;37.790;2024-02-21T01:08:38;1.43;78.37
75190;HTU21D;69198;44.694;37.790;2024-02-21T01:09:39;1.41;78.37
75190;HTU21D;69198;44.694;37.790;2024-02-21T01:10:40;1.42;78.45
75190;HTU21D;69198;44.694;37.790;2024-02-21T01:11:41;1.41;78.43
75190;HTU21D;69198;44.694;37.790;2024-02-21T01:12:42;1.39;78.45
75190;HTU21D;69198;44.694;37.790;2024-02-21T01:13:44;1.40;78.52
75190;HTU21D;69198;44.694;37.790;2024-02-21T01:14:45;1.40;78.54
75190;HTU21D;69198;44.694;37.790;2024-02-21T01:15:50;1.38;78.53
75190;HTU21D;69198;44.694;37.790;2024-02-21T01:16:51;1.37;78.54
75190;HTU21D;69198;44.694;37.790;2024-02-21T01:17:52;1.38;78.56
75190;HTU21D;69198;44.694;37.790;2024-02-21T01:18:55;1.37;78.60
75190;HTU21D;69198;44.694;37.790;2024-02-21T01:19:56;1.38;78.66
75190;HTU21D;69198;44.694;37.790;2024-02-21T01:20:57;1.38;78.69
75190;HTU21D;69198;44.694;37.790;2024-02-21T01:21:58;1.42;78.82
75190;HTU21D;69198;44.694;37.790;2024-02-21T01:22:59;1.42;78.79
75190;HTU21D;69198;44.694;37.790;2024-02-21T01:24:00;1.42;78.75
75190;HTU21D;69198;44.694;37.790;2024-02-21T01:25:01;1.40;78.73
75190;HTU21D;69198;44.694;37.790;2024-02-21T01:26:03;1.40;78.78
75190;HTU21D;69198;44.694;37.790;2024-02-21T01:27:04;1.38;78.76
75190;HTU21D;69198;44.694;37.790;2024-02-21T01:28:05;1.39;78.81
75190;HTU21D;69198;44.694;37.790;2024-02-21T01:29:06;1.38;78.85
75190;HTU21D;69198;44.694;37.790;2024-02-21T01:30:08;1.36;78.85
75190;HTU21D;69198;44.694;37.790;2024-02-21T01:31:10;1.34;78.80
75190;HTU21D;69198;44.694;37.790;2024-02-21T01:32:11;1.32;78.82
75190;HTU21D;69198;44.694;37.790;2024-02-21T01:33:12;1.29;78.82
75190;HTU21D;69198;44.694;37.790;2024-02-21T01:34:13;1.32;78.89
75190;HTU21D;69198;44.694;37.790;2024-02-21T01:35:14;1.29;78.84
75190;HTU21D;69198;44.694;37.790;2024-02-21T01:36:15;1.31;78.87
75190;HTU21D;69198;44.694;37.790;2024-02-21T01:37:16;1.27;78.85
75190;HTU21D;69198;44.694;37.790;2024-02-21T01:38:17;1.24;78.85
75190;HTU21D;69198;44.694;37.790;2024-02-21T01:39:18;1.22;78.85
75190;HTU21D;69198;44.694;37.790;2024-02-21T01:40:19;1.19;78.85
75190;HTU21D;69198;44.694;37.790;2024-02-21T01:41:20;1.17;78.88
75190;HTU21D;69198;44.694;37.790;2024-02-21T01:42:21;1.13;78.90
75190;HTU21D;69198;44.694;37.790;2024-02-21T01:43:22;1.13;78.95
75190;HTU21D;69198;44.694;37.790;2024-02-21T01:44:23;1.14;78.98
75190;HTU21D;69198;44.694;37.790;2024-02-21T01:45:24;1.11;78.97
75190;HTU21D;69198;44.694;37.790;2024-02-21T01:46:25;1.11;79.03
75190;HTU21D;69198;44.694;37.790;2024-02-21T01:47:29;1.12;79.10
75190;HTU21D;69198;44.694;37.790;2024-02-21T01:48:30;1.11;79.10
75190;HTU21D;69198;44.694;37.790;2024-02-21T01:49:31;1.16;79.15
75190;HTU21D;69198;44.694;37.790;2024-02-21T01:50:33;1.16;79.16
75190;HTU21D;69198;44.694;37.790;2024-02-21T01:51:34;1.14;79.19
75190;HTU21D;69198;44.694;37.790;2024-02-21T01:52:35;1.13;79.19
75190;HTU21D;69198;44.694;37.790;2024-02-21T01:53:39;1.13;79.20
75190;HTU21D;69198;44.694;37.790;2024-02-21T01:54:44;1.11;79.19
75190;HTU21D;69198;44.694;37.790;2024-02-21T01:55:48;1.09;79.20
75190;HTU21D;69198;44.694;37.790;2024-02-21T01:56:49;1.07;79.22
75190;HTU21D;69198;44.694;37.790;2024-02-21T01:57:51;1.04;79.24
75190;HTU21D;69198;44.694;37.790;2024-02-21T01:58:52;1.03;79.27
75190;HTU21D;69198;44.694;37.790;2024-02-21T01:59:54;1.03;79.30
75190;HTU21D;69198;44.694;37.790;2024-02-21T02:00:56;1.01;79.30
75190;HTU21D;69198;44.694;37.790;2024-02-21T02:01:58;0.99;79.37
75190;HTU21D;69198;44.694;37.790;2024-02-21T02:02:59;1.01;79.43
75190;HTU21D;69198;44.694;37.790;2024-02-21T02:04:00;0.99;79.43
75190;HTU21D;69198;44.694;37.790;2024-02-21T02:05:01;0.97;79.45
75190;HTU21D;69198;44.694;37.790;2024-02-21T02:06:05;0.97;79.45
75190;HTU21D;69198;44.694;37.790;2024-02-21T02:07:07;0.94;79.48
75190;HTU21D;69198;44.694;37.790;2024-02-21T02:08:08;0.95;79.50
75190;HTU21D;69198;44.694;37.790;2024-02-21T02:09:09;0.96;79.50
75190;HTU21D;69198;44.694;37.790;2024-02-21T02:10:10;0.96;79.52
75190;HTU21D;69198;44.694;37.790;2024-02-21T02:11:13;0.96;79.53
75190;HTU21D;69198;44.694;37.790;2024-02-21T02:12:14;0.99;79.64
75190;HTU21D;69198;44.694;37.790;2024-02-21T02:13:15;0.98;79.58
75190;HTU21D;69198;44.694;37.790;2024-02-21T02:14:16;0.96;79.61
75190;HTU21D;69198;44.694;37.790;2024-02-21T02:15:17;0.97;79.64
75190;HTU21D;69198;44.694;37.790;2024-02-21T02:16:18;0.99;79.72
75190;HTU21D;69198;44.694;37.790;2024-02-21T02:17:19;0.98;79.73
75190;HTU21D;69198;44.694;37.790;2024-02-21T02:18:21;0.98;79.75
75190;HTU21D;69198;44.694;37.790;2024-02-21T02:19:22;0.98;79.75
75190;HTU21D;69198;44.694;37.790;2024-02-21T02:20:23;0.98;79.78
75190;HTU21D;69198;44.694;37.790;2024-02-21T02:21:30;0.99;79.82
75190;HTU21D;69198;44.694;37.790;2024-02-21T02:22:33;0.98;79.88
75190;HTU21D;69198;44.694;37.790;2024-02-21T02:23:37;0.98;79.89
75190;HTU21D;69198;44.694;37.790;2024-02-21T02:24:38;0.96;79.88
75190;HTU21D;69198;44.694;37.790;2024-02-21T02:25:40;0.97;79.91
75190;HTU21D;69198;44.694;37.790;2024-02-21T02:26:41;0.96;79.92
75190;HTU21D;69198;44.694;37.790;2024-02-21T02:27:43;0.95;79.95
75190;HTU21D;69198;44.694;37.790;2024-02-21T02:28:45;0.97;80.02
75190;HTU21D;69198;44.694;37.790;2024-02-21T02:29:46;0.97;80.01
75190;HTU21D;69198;44.694;37.790;2024-02-21T02:30:48;0.96;80.01
75190;HTU21D;69198;44.694;37.790;2024-02-21T02:31:49;0.97;80.07
75190;HTU21D;69198;44.694;37.790;2024-02-21T02:32:50;0.97;80.11
75190;HTU21D;69198;44.694;37.790;2024-02-21T02:33:51;0.97;80.07
75190;HTU21D;69198;44.694;37.790;2024-02-21T02:34:52;0.97;80.09
75190;HTU21D;69198;44.694;37.790;2024-02-21T02:35:53;0.97;80.11
75190;HTU21D;69198;44.694;37.790;2024-02-21T02:36:54;0.97;80.11
75190;HTU21D;69198;44.694;37.790;2024-02-21T02:37:55;0.96;80.14
75190;HTU21D;69198;44.694;37.790;2024-02-21T02:38:56;0.97;80.15
75190;HTU21D;69198;44.694;37.790;2024-02-21T02:39:57;0.98;80.19
75190;HTU21D;69198;44.694;37.790;2024-02-21T02:40:58;1.01;80.22
75190;HTU21D;69198;44.694;37.790;2024-02-21T02:42:00;0.99;80.18
75190;HTU21D;69198;44.694;37.790;2024-02-21T02:43:01;1.02;80.21
75190;HTU21D;69198;44.694;37.790;2024-02-21T02:44:02;1.05;80.24
75190;HTU21D;69198;44.694;37.790;2024-02-21T02:45:04;1.08;80.29
75190;HTU21D;69198;44.694;37.790;2024-02-21T02:46:05;1.10;80.27
75190;HTU21D;69198;44.694;37.790;2024-02-21T02:47:06;1.14;80.30
75190;HTU21D;69198;44.694;37.790;2024-02-21T02:48:07;1.19;80.27
75190;HTU21D;69198;44.694;37.790;2024-02-21T02:49:09;1.21;80.20
75190;HTU21D;69198;44.694;37.790;2024-02-21T02:50:10;1.21;80.17
75190;HTU21D;69198;44.694;37.790;2024-02-21T02:51:11;1.24;80.14
75190;HTU21D;69198;44.694;37.790;2024-02-21T02:52:12;1.25;80.12
75190;HTU21D;69198;44.694;37.790;2024-02-21T02:53:13;1.26;80.08
75190;HTU21D;69198;44.694;37.790;2024-02-21T02:54:14;1.27;80.06
75190;HTU21D;69198;44.694;37.790;2024-02-21T02:55:15;1.27;80.02
75190;HTU21D;69198;44.694;37.790;2024-02-21T02:56:16;1.27;80.00
75190;HTU21D;69198;44.694;37.790;2024-02-21T02:57:18;1.29;79.99
75190;HTU21D;69198;44.694;37.790;2024-02-21T02:58:19;1.32;80.00
75190;HTU21D;69198;44.694;37.790;2024-02-21T02:59:20;1.34;79.92
75190;HTU21D;69198;44.694;37.790;2024-02-21T03:00:21;1.36;79.93
75190;HTU21D;69198;44.694;37.790;2024-02-21T03:01:22;1.39;79.91
75190;HTU21D;69198;44.694;37.790;2024-02-21T03:02:23;1.41;79.88
75190;HTU21D;69198;44.694;37.790;2024-02-21T03:03:24;1.42;79.83
75190;HTU21D;69198;44.694;37.790;2024-02-21T03:04:25;1.43;79.84
75190;HTU21D;69198;44.694;37.790;2024-02-21T03:05:26;1.45;79.79
75190;HTU21D;69198;44.694;37.790;2024-02-21T03:06:27;1.46;79.82
75190;HTU21D;69198;44.694;37.790;2024-02-21T03:07:29;1.48;79.81
75190;HTU21D;69198;44.694;37.790;2024-02-21T03:08:30;1.49;79.74
75190;HTU21D;69198;44.694;37.790;2024-02-21T03:09:31;1.51;79.72
75190;HTU21D;69198;44.694;37.790;2024-02-21T03:10:32;1.49;79.67
75190;HTU21D;69198;44.694;37.790;2024-02-21T03:11:34;1.51;79.69
75190;HTU21D;69198;44.694;37.790;2024-02-21T03:12:35;1.50;79.69
75190;HTU21D;69198;44.694;37.790;2024-02-21T03:13:36;1.49;79.70
75190;HTU21D;69198;44.694;37.790;2024-02-21T03:14:37;1.50;79.72
75190;HTU21D;69198;44.694;37.790;2024-02-21T03:15:39;1.50;79.72
75190;HTU21D;69198;44.694;37.790;2024-02-21T03:16:40;1.52;79.70
75190;HTU21D;69198;44.694;37.790;2024-02-21T03:17:41;1.52;79.70
75190;HTU21D;69198;44.694;37.790;2024-02-21T03:18:42;1.54;79.69
75190;HTU21D;69198;44.694;37.790;2024-02-21T03:19:44;1.56;79.68
75190;HTU21D;69198;44.694;37.790;2024-02-21T03:20:44;1.58;79.62
75190;HTU21D;69198;44.694;37.790;2024-02-21T03:21:46;1.61;79.56
75190;HTU21D;69198;44.694;37.790;2024-02-21T03:22:47;1.62;79.50
75190;HTU21D;69198;44.694;37.790;2024-02-21T03:23:48;1.65;79.48
75190;HTU21D;69198;44.694;37.790;2024-02-21T03:24:49;1.67;79.43
75190;HTU21D;69198;44.694;37.790;2024-02-21T03:25:50;1.66;79.38
75190;HTU21D;69198;44.694;37.790;2024-02-21T03:26:51;1.65;79.36
75190;HTU21D;69198;44.694;37.790;2024-02-21T03:27:52;1.64;79.33
75190;HTU21D;69198;44.694;37.790;2024-02-21T03:28:53;1.62;79.35
75190;HTU21D;69198;44.694;37.790;2024-02-21T03:29:54;1.58;79.37
75190;HTU21D;69198;44.694;37.790;2024-02-21T03:30:55;1.55;79.41
75190;HTU21D;69198;44.694;37.790;2024-02-21T03:31:56;1.54;79.45
75190;HTU21D;69198;44.694;37.790;2024-02-21T03:32:56;1.54;79.45
75190;HTU21D;69198;44.694;37.790;2024-02-21T03:33:57;1.52;79.48
75190;HTU21D;69198;44.694;37.790;2024-02-21T03:34:58;1.54;79.49
75190;HTU21D;69198;44.694;37.790;2024-02-21T03:35:59;1.52;79.49
75190;HTU21D;69198;44.694;37.790;2024-02-21T03:37:01;1.53;79.51
75190;HTU21D;69198;44.694;37.790;2024-02-21T03:38:02;1.54;79.49
75190;HTU21D;69198;44.694;37.790;2024-02-21T03:39:03;1.57;79.46
75190;HTU21D;69198;44.694;37.790;2024-02-21T03:40:08;1.58;79.42
75190;HTU21D;69198;44.694;37.790;2024-02-21T03:41:09;1.60;79.41
75190;HTU21D;69198;44.694;37.790;2024-02-21T03:42:10;1.60;79.34
75190;HTU21D;69198;44.694;37.790;2024-02-21T03:43:12;1.58;79.33
75190;HTU21D;69198;44.694;37.790;2024-02-21T03:44:13;1.61;79.33
75190;HTU21D;69198;44.694;37.790;2024-02-21T03:45:14;1.60;79.30
75190;HTU21D;69198;44.694;37.790;2024-02-21T03:46:15;1.56;79.30
75190;HTU21D;69198;44.694;37.790;2024-02-21T03:47:16;1.57;79.32
75190;HTU21D;69198;44.694;37.790;2024-02-21T03:48:17;1.55;79.32
75190;HTU21D;69198;44.694;37.790;2024-02-21T03:49:18;1.56;79.30
75190;HTU21D;69198;44.694;37.790;2024-02-21T03:50:19;1.54;79.30
75190;HTU21D;69198;44.694;37.790;2024-02-21T03:51:20;1.52;79.30
75190;HTU21D;69198;44.694;37.790;2024-02-21T03:52:21;1.50;79.34
75190;HTU21D;69198;44.694;37.790;2024-02-21T03:53:22;1.49;79.37
75190;HTU21D;69198;44.694;37.790;2024-02-21T03:54:24;1.49;79.35
75190;HTU21D;69198;44.694;37.790;2024-02-21T03:55:25;1.46;79.35
75190;HTU21D;69198;44.694;37.790;2024-02-21T03:56:26;1.46;79.41
75190;HTU21D;69198;44.694;37.790;2024-02-21T03:57:27;1.43;79.44
75190;HTU21D;69198;44.694;37.790;2024-02-21T03:58:28;1.45;79.45
75190;HTU21D;69198;44.694;37.790;2024-02-21T03:59:29;1.43;79.46
75190;HTU21D;69198;44.694;37.790;2024-02-21T04:00:30;1.43;79.48
75190;HTU21D;69198;44.694;37.790;2024-02-21T04:01:31;1.43;79.52
75190;HTU21D;69198;44.694;37.790;2024-02-21T04:02:32;1.39;79.53
75190;HTU21D;69198;44.694;37.790;2024-02-21T04:03:33;1.38;79.58
75190;HTU21D;69198;44.694;37.790;2024-02-21T04:04:35;1.40;79.62
75190;HTU21D;69198;44.694;37.790;2024-02-21T04:05:38;1.38;79.62
75190;HTU21D;69198;44.694;37.790;2024-02-21T04:06:51;1.37;79.64
75190;HTU21D;69198;44.694;37.790;2024-02-21T04:07:53;1.34;79.68
75190;HTU21D;69198;44.694;37.790;2024-02-21T04:08:54;1.29;79.70
75190;HTU21D;69198;44.694;37.790;2024-02-21T04:09:56;1.25;79.73
75190;HTU21D;69198;44.694;37.790;2024-02-21T04:10:57;1.22;79.78
75190;HTU21D;69198;44.694;37.790;2024-02-21T04:11:58;1.19;79.84
75190;HTU21D;69198;44.694;37.790;2024-02-21T04:12:59;1.17;79.94
75190;HTU21D;69198;44.694;37.790;2024-02-21T04:14:00;1.14;80.01
75190;HTU21D;69198;44.694;37.790;2024-02-21T04:15:01;1.14;80.01
75190;HTU21D;69198;44.694;37.790;2024-02-21T04:16:02;1.14;80.06
75190;HTU21D;69198;44.694;37.790;2024-02-21T04:17:04;1.17;80.04
75190;HTU21D;69198;44.694;37.790;2024-02-21T04:18:06;1.16;80.04
75190;HTU21D;69198;44.694;37.790;2024-02-21T04:19:07;1.14;80.07
75190;HTU21D;69198;44.694;37.790;2024-02-21T04:20:14;1.20;80.09
75190;HTU21D;69198;44.694;37.790;2024-02-21T04:21:17;1.19;80.08
75190;HTU21D;69198;44.694;37.790;2024-02-21T04:22:18;1.19;80.03
75190;HTU21D;69198;44.694;37.790;2024-02-21T04:23:19;1.18;80.07
75190;HTU21D;69198;44.694;37.790;2024-02-21T04:24:20;1.20;80.07
75190;HTU21D;69198;44.694;37.790;2024-02-21T04:25:21;1.21;80.03
75190;HTU21D;69198;44.694;37.790;2024-02-21T04:26:22;1.20;80.00
75190;HTU21D;69198;44.694;37.790;2024-02-21T04:27:23;1.21;80.01
75190;HTU21D;69198;44.694;37.790;2024-02-21T04:28:24;1.20;79.98
75190;HTU21D;69198;44.694;37.790;2024-02-21T04:29:25;1.21;79.96
75190;HTU21D;69198;44.694;37.790;2024-02-21T04:30:28;1.22;79.95
75190;HTU21D;69198;44.694;37.790;2024-02-21T04:31:29;1.23;79.93
75190;HTU21D;69198;44.694;37.790;2024-02-21T04:32:32;1.26;79.91
75190;HTU21D;69198;44.694;37.790;2024-02-21T04:33:34;1.28;79.91
75190;HTU21D;69198;44.694;37.790;2024-02-21T04:34:35;1.32;79.94
75190;HTU21D;69198;44.694;37.790;2024-02-21T04:35:36;1.43;79.99
75190;HTU21D;69198;44.694;37.790;2024-02-21T04:36:37;1.63;80.06
75190;HTU21D;69198;44.694;37.790;2024-02-21T04:37:38;1.88;79.72
75190;HTU21D;69198;44.694;37.790;2024-02-21T04:38:39;2.11;79.09
75190;HTU21D;69198;44.694;37.790;2024-02-21T04:39:41;2.26;78.44
75190;HTU21D;69198;44.694;37.790;2024-02-21T04:40:42;2.36;77.92
75190;HTU21D;69198;44.694;37.790;2024-02-21T04:41:43;2.43;77.67
75190;HTU21D;69198;44.694;37.790;2024-02-21T04:42:44;2.54;77.50
75190;HTU21D;69198;44.694;37.790;2024-02-21T04:43:48;2.68;77.12
75190;HTU21D;69198;44.694;37.790;2024-02-21T04:44:49;2.82;76.91
75190;HTU21D;69198;44.694;37.790;2024-02-21T04:45:51;2.93;76.73
75190;HTU21D;69198;44.694;37.790;2024-02-21T04:46:54;3.11;76.53
75190;HTU21D;69198;44.694;37.790;2024-02-21T04:47:55;3.28;76.28
75190;HTU21D;69198;44.694;37.790;2024-02-21T04:48:56;3.45;75.78
75190;HTU21D;69198;44.694;37.790;2024-02-21T04:49:57;3.63;75.38
75190;HTU21D;69198;44.694;37.790;2024-02-21T04:50:58;3.80;75.03
75190;HTU21D;69198;44.694;37.790;2024-02-21T04:51:59;4.00;74.59
75190;HTU21D;69198;44.694;37.790;2024-02-21T04:53:00;4.18;74.17
75190;HTU21D;69198;44.694;37.790;2024-02-21T04:54:01;4.38;73.88
75190;HTU21D;69198;44.694;37.790;2024-02-21T04:55:02;4.63;73.48
75190;HTU21D;69198;44.694;37.790;2024-02-21T04:56:03;4.89;73.03
75190;HTU21D;69198;44.694;37.790;2024-02-21T04:57:05;5.15;72.59
75190;HTU21D;69198;44.694;37.790;2024-02-21T04:58:06;5.39;71.66
75190;HTU21D;69198;44.694;37.790;2024-02-21T04:59:06;5.65;71.45
75190;HTU21D;69198;44.694;37.790;2024-02-21T05:00:08;5.90;70.87
75190;HTU21D;69198;44.694;37.790;2024-02-21T05:01:09;6.11;70.16
75190;HTU21D;69198;44.694;37.790;2024-02-21T05:02:11;6.30;69.74
75190;HTU21D;69198;44.694;37.790;2024-02-21T05:03:12;6.53;69.36
75190;HTU21D;69198;44.694;37.790;2024-02-21T05:04:13;6.72;68.87
75190;HTU21D;69198;44.694;37.790;2024-02-21T05:05:14;6.88;68.29
75190;HTU21D;69198;44.694;37.790;2024-02-21T05:06:17;7.09;68.06
75190;HTU21D;69198;44.694;37.790;2024-02-21T05:07:18;7.24;66.94
75190;HTU21D;69198;44.694;37.790;2024-02-21T05:08:20;7.37;66.52
75190;HTU21D;69198;44.694;37.790;2024-02-21T05:09:21;7.50;66.22
75190;HTU21D;69198;44.694;37.790;2024-02-21T05:10:22;7.68;65.43
75190;HTU21D;69198;44.694;37.790;2024-02-21T05:11:23;7.85;65.01
75190;HTU21D;69198;44.694;37.790;2024-02-21T05:12:24;8.02;64.28
75190;HTU21D;69198;44.694;37.790;2024-02-21T05:13:26;8.13;63.70
75190;HTU21D;69198;44.694;37.790;2024-02-21T05:14:27;8.23;62.82
75190;HTU21D;69198;44.694;37.790;2024-02-21T05:15:27;8.32;62.75
75190;HTU21D;69198;44.694;37.790;2024-02-21T05:16:29;8.46;62.63
75190;HTU21D;69198;44.694;37.790;2024-02-21T05:17:29;8.61;61.93
75190;HTU21D;69198;44.694;37.790;2024-02-21T05:18:31;8.76;61.50
75190;HTU21D;69198;44.694;37.790;2024-02-21T05:19:32;8.89;60.89
75190;HTU21D;69198;44.694;37.790;2024-02-21T05:20:33;9.08;60.88
75190;HTU21D;69198;44.694;37.790;2024-02-21T05:21:34;9.27;59.55
75190;HTU21D;69198;44.694;37.790;2024-02-21T05:22:35;9.40;58.87
75190;HTU21D;69198;44.694;37.790;2024-02-21T05:23:36;9.56;59.06
75190;HTU21D;69198;44.694;37.790;2024-02-21T05:24:39;9.80;58.75
75190;HTU21D;69198;44.694;37.790;2024-02-21T05:25:40;9.98;57.79
75190;HTU21D;69198;44.694;37.790;2024-02-21T05:26:41;10.16;57.89
75190;HTU21D;69198;44.694;37.790;2024-02-21T05:27:42;10.37;57.89
75190;HTU21D;69198;44.694;37.790;2024-02-21T05:28:43;10.53;56.42
75190;HTU21D;69198;44.694;37.790;2024-02-21T05:29:44;10.62;55.93
75190;HTU21D;69198;44.694;37.790;2024-02-21T05:30:45;10.67;55.52
75190;HTU21D;69198;44.694;37.790;2024-02-21T05:32:56;10.65;53.85
75190;HTU21D;69198;44.694;37.790;2024-02-21T05:33:57;10.60;53.29
75190;HTU21D;69198;44.694;37.790;2024-02-21T05:34:58;10.62;53.01
75190;HTU21D;69198;44.694;37.790;2024-02-21T05:35:59;10.66;52.55
75190;HTU21D;69198;44.694;37.790;2024-02-21T05:37:00;10.72;53.28
75190;HTU21D;69198;44.694;37.790;2024-02-21T05:38:02;10.87;53.40
75190;HTU21D;69198;44.694;37.790;2024-02-21T05:39:07;11.02;53.21
75190;HTU21D;69198;44.694;37.790;2024-02-21T05:40:08;11.18;53.31
75190;HTU21D;69198;44.694;37.790;2024-02-21T05:41:10;11.40;53.22
75190;HTU21D;69198;44.694;37.790;2024-02-21T05:42:11;11.62;52.74
75190;HTU21D;69198;44.694;37.790;2024-02-21T05:43:13;11.85;52.34
75190;HTU21D;69198;44.694;37.790;2024-02-21T05:44:14;12.02;51.68
75190;HTU21D;69198;44.694;37.790;2024-02-21T05:45:16;12.06;51.21
75190;HTU21D;69198;44.694;37.790;2024-02-21T05:46:19;11.77;50.94
75190;HTU21D;69198;44.694;37.790;2024-02-21T05:47:20;11.47;51.66
75190;HTU21D;69198;44.694;37.790;2024-02-21T05:48:22;11.25;51.27
75190;HTU21D;69198;44.694;37.790;2024-02-21T05:49:23;10.93;50.88
75190;HTU21D;69198;44.694;37.790;2024-02-21T05:50:24;10.70;52.06
75190;HTU21D;69198;44.694;37.790;2024-02-21T05:51:25;10.72;52.32
75190;HTU21D;69198;44.694;37.790;2024-02-21T05:52:26;10.80;51.95
75190;HTU21D;69198;44.694;37.790;2024-02-21T05:53:27;10.65;51.68
75190;HTU21D;69198;44.694;37.790;2024-02-21T05:54:28;10.48;51.71
75190;HTU21D;69198;44.694;37.790;2024-02-21T05:55:29;10.30;52.01
75190;HTU21D;69198;44.694;37.790;2024-02-21T05:56:30;10.18;52.06
75190;HTU21D;69198;44.694;37.790;2024-02-21T05:57:31;10.15;52.21
75190;HTU21D;69198;44.694;37.790;2024-02-21T05:58:32;10.36;52.25
75190;HTU21D;69198;44.694;37.790;2024-02-21T05:59:33;10.69;51.72
75190;HTU21D;69198;44.694;37.790;2024-02-21T06:00:37;10.82;51.25
75190;HTU21D;69198;44.694;37.790;2024-02-21T06:01:38;10.75;50.83
75190;HTU21D;69198;44.694;37.790;2024-02-21T06:02:39;10.53;50.80
75190;HTU21D;69198;44.694;37.790;2024-02-21T06:03:40;10.27;50.68
75190;HTU21D;69198;44.694;37.790;2024-02-21T06:04:42;9.99;51.14
75190;HTU21D;69198;44.694;37.790;2024-02-21T06:05:47;9.77;51.09
75190;HTU21D;69198;44.694;37.790;2024-02-21T06:06:48;9.61;51.14
75190;HTU21D;69198;44.694;37.790;2024-02-21T06:07:49;9.44;51.27
75190;HTU21D;69198;44.694;37.790;2024-02-21T06:08:50;9.24;51.55
75190;HTU21D;69198;44.694;37.790;2024-02-21T06:09:51;9.08;51.82
75190;HTU21D;69198;44.694;37.790;2024-02-21T06:10:52;8.94;51.45
75190;HTU21D;69198;44.694;37.790;2024-02-21T06:11:55;8.78;51.57
75190;HTU21D;69198;44.694;37.790;2024-02-21T06:12:56;8.65;51.43
75190;HTU21D;69198;44.694;37.790;2024-02-21T06:13:57;8.56;51.91
75190;HTU21D;69198;44.694;37.790;2024-02-21T06:14:58;8.49;51.91
75190;HTU21D;69198;44.694;37.790;2024-02-21T06:15:59;8.42;51.59
75190;HTU21D;69198;44.694;37.790;2024-02-21T06:17:00;8.30;51.21
75190;HTU21D;69198;44.694;37.790;2024-02-21T06:18:01;8.29;51.56
75190;HTU21D;69198;44.694;37.790;2024-02-21T06:19:02;8.28;51.75
75190;HTU21D;69198;44.694;37.790;2024-02-21T06:20:04;8.24;51.46
75190;HTU21D;69198;44.694;37.790;2024-02-21T06:21:05;8.34;51.59
75190;HTU21D;69198;44.694;37.790;2024-02-21T06:22:06;8.53;51.23